FOOL Airport Information

Runway Information
Runway 16 Length 9844 ft width 148 ft
Elevation 29 ft Threshold 0 ft Heading 154
Runway 34 Length 9844 ft Width 148 ft
Elevation 28 ft Threshold 0 ft Heading 334
Airport Frequencies
Type A/G Name A/G VOICE Frequency 655.9 MHZ
Type RDO Name LIBREVILLE Frequency 666.6 MHZ
Type TWR Name TWR Frequency 118.7 MHZ
Airport Navaids
Type VOR-DME Name Libreville Frequency 112100 KHZ
Airport Weather Information & NOTAM
ADDS - METARS form results

(0115 UTC 12 April 2021)
Data provider http://aviationweather.gov/metar/data/
 
METAR text: FOOL 120100Z 02001KT 9999 FEW010 24/23 Q1009 NOSIG
Conditions at: FOOL (LIBREVILLE/LEON , GA) observed 0100 UTC 12 April 2021
Temperature: 24.0°C (75°F)
Dewpoint: 23.0°C (73°F) [RH = 94%]
Pressure (altimeter): 29.79 inches Hg (1009.0 mb)
Winds: from the NNE (20 degrees) at 1 MPH (1 knots; 0.5 m/s)
Visibility: 6 or more miles (10+ km)
Ceiling: at least 12,000 feet AGL
Clouds: few clouds at 1000 feet AGL
Weather: no significant weather observed at this time

METAR text: FOOL 120030Z VRB02KT 9999 FEW010 24/23 Q1010 NOSIG
Conditions at: FOOL (LIBREVILLE/LEON , GA) observed 0030 UTC 12 April 2021
Temperature: 24.0°C (75°F)
Dewpoint: 23.0°C (73°F) [RH = 94%]
Pressure (altimeter): 29.82 inches Hg (1010.0 mb)
Winds: variable direction winds at 2 MPH (2 knots; 1.0 m/s)
Visibility: 6 or more miles (10+ km)
Ceiling: at least 12,000 feet AGL
Clouds: few clouds at 1000 feet AGL
Weather: no significant weather observed at this time

Forecast for: FOOL (LIBREVILLE/LEON , GA)
Text: TAF FOOL 112300Z 1200/1306 14003KT 9999 SCT010 BKN030
Forecast period: 0000 UTC 12 April 2021 to 0600 UTC 13 April 2021
Forecast type: FROM: standard forecast or significant change
Winds: from the SE (140 degrees) at 3 MPH (3 knots; 1.5 m/s)
Visibility: 6 or more miles (10+ km)
Ceiling: 3000 feet AGL
Clouds: scattered clouds at 1000 feet AGL
broken clouds at 3000 feet AGL
Weather: no significant weather forecast for this period
Text: PROB30
Forecast period: 1400 to 2000 UTC 12 April 2021
Forecast type: TEMPORARY: The following changes expected for less than half the time period
Visibility: missing
Ceiling: 1200 feet AGL
Clouds: broken clouds at 1200 feet AGL
few clouds at 2000 feet AGL
Weather: TS  (thunderstorm)
Text: TEMPO 1214/1220 TS BKN012 FEW020CB
Forecast period: 0000 to 0600 UTC 13 April 2021
Forecast type: TEMPORARY: The following changes expected for less than half the time period
Visibility: 2.49 miles (4.01 km)
Ceiling: 800 feet AGL
Clouds: broken clouds at 800 feet AGL
few clouds at 1800 feet AGL
Weather: -TSRA  (light rain associated with thunderstorm(s))